sensor_id;sensor_type;location;lat;lon;timestamp;P1;durP1;ratioP1;P2;durP2;ratioP2
83054;SDS011;72877;52.130;5.582;2023-11-19T00:00:04;19.65;;;11.93;;
83054;SDS011;72877;52.130;5.582;2023-11-19T00:02:31;26.92;;;10.00;;
83054;SDS011;72877;52.130;5.582;2023-11-19T00:04:57;18.10;;;10.07;;
83054;SDS011;72877;52.130;5.582;2023-11-19T00:07:23;26.58;;;10.55;;
83054;SDS011;72877;52.130;5.582;2023-11-19T00:09:48;20.02;;;9.57;;
83054;SDS011;72877;52.130;5.582;2023-11-19T00:12:14;21.65;;;10.80;;
83054;SDS011;72877;52.130;5.582;2023-11-19T00:14:39;31.27;;;11.23;;
83054;SDS011;72877;52.130;5.582;2023-11-19T00:17:04;24.53;;;10.30;;
83054;SDS011;72877;52.130;5.582;2023-11-19T00:19:29;23.40;;;10.43;;
83054;SDS011;72877;52.130;5.582;2023-11-19T00:21:55;19.20;;;9.57;;
83054;SDS011;72877;52.130;5.582;2023-11-19T00:24:20;27.05;;;10.07;;
83054;SDS011;72877;52.130;5.582;2023-11-19T00:26:45;25.23;;;9.75;;
83054;SDS011;72877;52.130;5.582;2023-11-19T00:29:10;19.50;;;9.52;;
83054;SDS011;72877;52.130;5.582;2023-11-19T00:31:36;24.15;;;9.13;;
83054;SDS011;72877;52.130;5.582;2023-11-19T00:34:01;22.10;;;9.60;;
83054;SDS011;72877;52.130;5.582;2023-11-19T00:36:27;16.13;;;8.68;;
83054;SDS011;72877;52.130;5.582;2023-11-19T00:38:53;31.15;;;9.60;;
83054;SDS011;72877;52.130;5.582;2023-11-19T00:41:18;22.83;;;8.82;;
83054;SDS011;72877;52.130;5.582;2023-11-19T00:43:44;24.02;;;8.95;;
83054;SDS011;72877;52.130;5.582;2023-11-19T00:46:09;27.17;;;9.15;;
83054;SDS011;72877;52.130;5.582;2023-11-19T00:48:36;23.60;;;7.60;;
83054;SDS011;72877;52.130;5.582;2023-11-19T00:51:01;22.83;;;7.47;;
83054;SDS011;72877;52.130;5.582;2023-11-19T00:53:26;26.30;;;8.67;;
83054;SDS011;72877;52.130;5.582;2023-11-19T00:55:51;29.88;;;7.82;;
83054;SDS011;72877;52.130;5.582;2023-11-19T00:58:16;26.50;;;8.50;;
83054;SDS011;72877;52.130;5.582;2023-11-19T01:00:43;21.30;;;7.63;;
83054;SDS011;72877;52.130;5.582;2023-11-19T01:03:08;26.08;;;6.93;;
83054;SDS011;72877;52.130;5.582;2023-11-19T01:05:33;23.20;;;7.28;;
83054;SDS011;72877;52.130;5.582;2023-11-19T01:07:58;29.93;;;6.87;;
83054;SDS011;72877;52.130;5.582;2023-11-19T01:10:23;19.23;;;5.90;;
83054;SDS011;72877;52.130;5.582;2023-11-19T01:12:49;28.70;;;6.32;;
83054;SDS011;72877;52.130;5.582;2023-11-19T01:15:14;33.42;;;8.13;;
83054;SDS011;72877;52.130;5.582;2023-11-19T01:17:39;39.60;;;7.78;;
83054;SDS011;72877;52.130;5.582;2023-11-19T01:20:05;22.35;;;6.53;;
83054;SDS011;72877;52.130;5.582;2023-11-19T01:22:37;27.77;;;7.10;;
83054;SDS011;72877;52.130;5.582;2023-11-19T01:25:02;36.87;;;6.73;;
83054;SDS011;72877;52.130;5.582;2023-11-19T01:27:27;31.45;;;7.47;;
83054;SDS011;72877;52.130;5.582;2023-11-19T01:29:53;30.63;;;7.50;;
83054;SDS011;72877;52.130;5.582;2023-11-19T01:32:18;31.77;;;8.13;;
83054;SDS011;72877;52.130;5.582;2023-11-19T01:34:43;27.65;;;7.10;;
83054;SDS011;72877;52.130;5.582;2023-11-19T01:37:09;34.00;;;8.23;;
83054;SDS011;72877;52.130;5.582;2023-11-19T01:39:35;33.38;;;7.15;;
83054;SDS011;72877;52.130;5.582;2023-11-19T01:42:00;36.55;;;8.07;;
83054;SDS011;72877;52.130;5.582;2023-11-19T01:44:25;37.47;;;7.13;;
83054;SDS011;72877;52.130;5.582;2023-11-19T01:46:51;43.28;;;8.63;;
83054;SDS011;72877;52.130;5.582;2023-11-19T01:49:17;32.78;;;7.65;;
83054;SDS011;72877;52.130;5.582;2023-11-19T01:51:42;37.13;;;7.63;;
83054;SDS011;72877;52.130;5.582;2023-11-19T01:54:08;40.50;;;9.23;;
83054;SDS011;72877;52.130;5.582;2023-11-19T01:56:34;48.65;;;9.20;;
83054;SDS011;72877;52.130;5.582;2023-11-19T01:58:59;30.42;;;8.15;;
83054;SDS011;72877;52.130;5.582;2023-11-19T02:01:25;37.55;;;8.18;;
83054;SDS011;72877;52.130;5.582;2023-11-19T02:03:51;38.97;;;8.32;;
83054;SDS011;72877;52.130;5.582;2023-11-19T02:06:16;40.17;;;7.70;;
83054;SDS011;72877;52.130;5.582;2023-11-19T02:08:41;47.80;;;7.53;;
83054;SDS011;72877;52.130;5.582;2023-11-19T02:11:07;44.40;;;8.13;;
83054;SDS011;72877;52.130;5.582;2023-11-19T02:13:32;51.90;;;9.73;;
83054;SDS011;72877;52.130;5.582;2023-11-19T02:15:57;49.95;;;8.57;;
83054;SDS011;72877;52.130;5.582;2023-11-19T02:18:23;35.13;;;8.30;;
83054;SDS011;72877;52.130;5.582;2023-11-19T02:20:49;33.92;;;8.32;;
83054;SDS011;72877;52.130;5.582;2023-11-19T02:23:15;31.75;;;7.88;;
83054;SDS011;72877;52.130;5.582;2023-11-19T02:25:40;40.42;;;8.55;;
83054;SDS011;72877;52.130;5.582;2023-11-19T02:28:06;38.10;;;8.60;;
83054;SDS011;72877;52.130;5.582;2023-11-19T02:30:32;43.08;;;8.70;;
83054;SDS011;72877;52.130;5.582;2023-11-19T02:32:57;35.90;;;8.18;;
83054;SDS011;72877;52.130;5.582;2023-11-19T02:35:26;45.38;;;9.13;;
83054;SDS011;72877;52.130;5.582;2023-11-19T02:37:52;42.88;;;8.55;;
83054;SDS011;72877;52.130;5.582;2023-11-19T02:40:17;41.08;;;8.98;;
83054;SDS011;72877;52.130;5.582;2023-11-19T02:42:43;53.05;;;8.60;;
83054;SDS011;72877;52.130;5.582;2023-11-19T02:45:08;41.45;;;9.00;;
83054;SDS011;72877;52.130;5.582;2023-11-19T02:47:39;55.53;;;8.93;;
83054;SDS011;72877;52.130;5.582;2023-11-19T02:50:04;37.72;;;9.52;;
83054;SDS011;72877;52.130;5.582;2023-11-19T02:52:31;41.00;;;8.75;;
83054;SDS011;72877;52.130;5.582;2023-11-19T02:55:02;40.15;;;8.82;;
83054;SDS011;72877;52.130;5.582;2023-11-19T02:57:30;41.13;;;8.18;;
83054;SDS011;72877;52.130;5.582;2023-11-19T02:59:55;36.85;;;7.72;;
83054;SDS011;72877;52.130;5.582;2023-11-19T03:02:21;42.83;;;8.25;;
83054;SDS011;72877;52.130;5.582;2023-11-19T03:04:47;46.70;;;9.45;;
83054;SDS011;72877;52.130;5.582;2023-11-19T03:07:12;47.17;;;10.23;;
83054;SDS011;72877;52.130;5.582;2023-11-19T03:09:38;45.65;;;10.32;;
83054;SDS011;72877;52.130;5.582;2023-11-19T03:12:05;46.35;;;8.48;;
83054;SDS011;72877;52.130;5.582;2023-11-19T03:14:33;40.17;;;8.63;;
83054;SDS011;72877;52.130;5.582;2023-11-19T03:16:59;38.33;;;9.20;;
83054;SDS011;72877;52.130;5.582;2023-11-19T03:19:24;53.92;;;9.32;;
83054;SDS011;72877;52.130;5.582;2023-11-19T03:21:49;36.25;;;9.40;;
83054;SDS011;72877;52.130;5.582;2023-11-19T03:24:15;49.05;;;9.93;;
83054;SDS011;72877;52.130;5.582;2023-11-19T03:26:40;42.90;;;9.02;;
83054;SDS011;72877;52.130;5.582;2023-11-19T03:29:07;52.53;;;9.75;;
83054;SDS011;72877;52.130;5.582;2023-11-19T03:31:33;53.00;;;10.30;;
83054;SDS011;72877;52.130;5.582;2023-11-19T03:33:58;43.70;;;9.40;;
83054;SDS011;72877;52.130;5.582;2023-11-19T03:36:23;44.50;;;8.80;;
83054;SDS011;72877;52.130;5.582;2023-11-19T03:38:48;45.97;;;9.68;;
83054;SDS011;72877;52.130;5.582;2023-11-19T03:41:14;54.03;;;10.85;;
83054;SDS011;72877;52.130;5.582;2023-11-19T03:43:39;54.30;;;9.48;;
83054;SDS011;72877;52.130;5.582;2023-11-19T03:46:05;47.45;;;9.80;;
83054;SDS011;72877;52.130;5.582;2023-11-19T03:48:30;46.35;;;8.90;;
83054;SDS011;72877;52.130;5.582;2023-11-19T03:50:55;40.08;;;9.63;;
83054;SDS011;72877;52.130;5.582;2023-11-19T03:53:21;63.00;;;10.67;;
83054;SDS011;72877;52.130;5.582;2023-11-19T03:55:46;48.43;;;9.33;;
83054;SDS011;72877;52.130;5.582;2023-11-19T03:58:11;47.53;;;9.57;;
83054;SDS011;72877;52.130;5.582;2023-11-19T04:00:37;53.05;;;9.70;;
83054;SDS011;72877;52.130;5.582;2023-11-19T04:03:02;55.72;;;10.63;;
83054;SDS011;72877;52.130;5.582;2023-11-19T04:05:28;54.22;;;9.23;;
83054;SDS011;72877;52.130;5.582;2023-11-19T04:07:53;47.03;;;9.20;;
83054;SDS011;72877;52.130;5.582;2023-11-19T04:10:18;44.63;;;10.03;;
83054;SDS011;72877;52.130;5.582;2023-11-19T04:12:43;60.88;;;10.73;;
83054;SDS011;72877;52.130;5.582;2023-11-19T04:15:09;50.10;;;10.00;;
83054;SDS011;72877;52.130;5.582;2023-11-19T04:17:34;53.05;;;9.93;;
83054;SDS011;72877;52.130;5.582;2023-11-19T04:19:59;56.90;;;9.88;;
83054;SDS011;72877;52.130;5.582;2023-11-19T04:22:24;42.88;;;10.65;;
83054;SDS011;72877;52.130;5.582;2023-11-19T04:24:49;64.63;;;12.00;;
83054;SDS011;72877;52.130;5.582;2023-11-19T04:27:15;44.47;;;10.38;;
83054;SDS011;72877;52.130;5.582;2023-11-19T04:29:40;64.88;;;10.43;;
83054;SDS011;72877;52.130;5.582;2023-11-19T04:32:05;53.47;;;10.47;;
83054;SDS011;72877;52.130;5.582;2023-11-19T04:34:30;60.72;;;9.57;;
83054;SDS011;72877;52.130;5.582;2023-11-19T04:36:56;58.10;;;11.40;;
83054;SDS011;72877;52.130;5.582;2023-11-19T04:39:21;56.33;;;11.20;;
83054;SDS011;72877;52.130;5.582;2023-11-19T04:41:51;55.30;;;10.98;;
83054;SDS011;72877;52.130;5.582;2023-11-19T04:44:19;56.13;;;11.18;;
83054;SDS011;72877;52.130;5.582;2023-11-19T04:46:44;48.47;;;10.10;;
83054;SDS011;72877;52.130;5.582;2023-11-19T04:49:10;66.55;;;10.68;;
83054;SDS011;72877;52.130;5.582;2023-11-19T04:51:39;54.83;;;10.05;;
83054;SDS011;72877;52.130;5.582;2023-11-19T04:54:05;49.15;;;8.88;;
83054;SDS011;72877;52.130;5.582;2023-11-19T04:56:31;49.47;;;9.55;;
83054;SDS011;72877;52.130;5.582;2023-11-19T04:58:57;48.00;;;10.23;;
83054;SDS011;72877;52.130;5.582;2023-11-19T05:01:22;58.70;;;9.63;;
83054;SDS011;72877;52.130;5.582;2023-11-19T05:03:47;52.85;;;9.50;;
83054;SDS011;72877;52.130;5.582;2023-11-19T05:06:12;49.37;;;10.17;;
83054;SDS011;72877;52.130;5.582;2023-11-19T05:08:37;52.63;;;9.90;;
83054;SDS011;72877;52.130;5.582;2023-11-19T05:11:03;57.20;;;9.63;;
83054;SDS011;72877;52.130;5.582;2023-11-19T05:13:28;49.20;;;10.50;;
83054;SDS011;72877;52.130;5.582;2023-11-19T05:15:53;58.80;;;10.23;;
83054;SDS011;72877;52.130;5.582;2023-11-19T05:18:19;51.80;;;10.73;;
83054;SDS011;72877;52.130;5.582;2023-11-19T05:20:45;52.30;;;10.63;;
83054;SDS011;72877;52.130;5.582;2023-11-19T05:23:10;49.28;;;8.98;;
83054;SDS011;72877;52.130;5.582;2023-11-19T05:25:36;49.42;;;10.63;;
83054;SDS011;72877;52.130;5.582;2023-11-19T05:28:01;45.75;;;9.45;;
83054;SDS011;72877;52.130;5.582;2023-11-19T05:30:26;45.28;;;9.05;;
83054;SDS011;72877;52.130;5.582;2023-11-19T05:32:52;54.97;;;11.38;;
83054;SDS011;72877;52.130;5.582;2023-11-19T05:35:17;43.63;;;10.23;;
83054;SDS011;72877;52.130;5.582;2023-11-19T05:37:42;50.07;;;9.87;;
83054;SDS011;72877;52.130;5.582;2023-11-19T05:40:08;56.53;;;10.55;;
83054;SDS011;72877;52.130;5.582;2023-11-19T05:42:39;43.70;;;9.63;;
83054;SDS011;72877;52.130;5.582;2023-11-19T05:45:04;57.17;;;9.73;;
83054;SDS011;72877;52.130;5.582;2023-11-19T05:47:30;47.53;;;8.73;;
83054;SDS011;72877;52.130;5.582;2023-11-19T05:49:55;48.57;;;10.27;;
83054;SDS011;72877;52.130;5.582;2023-11-19T05:52:20;54.58;;;10.45;;
83054;SDS011;72877;52.130;5.582;2023-11-19T05:54:47;63.47;;;11.18;;
83054;SDS011;72877;52.130;5.582;2023-11-19T05:57:16;45.15;;;9.98;;
83054;SDS011;72877;52.130;5.582;2023-11-19T05:59:45;65.13;;;11.30;;
83054;SDS011;72877;52.130;5.582;2023-11-19T06:02:10;51.70;;;9.85;;
83054;SDS011;72877;52.130;5.582;2023-11-19T06:04:35;47.05;;;9.85;;
83054;SDS011;72877;52.130;5.582;2023-11-19T06:07:01;49.72;;;10.57;;
83054;SDS011;72877;52.130;5.582;2023-11-19T06:09:26;50.67;;;10.07;;
83054;SDS011;72877;52.130;5.582;2023-11-19T06:11:51;62.72;;;10.80;;
83054;SDS011;72877;52.130;5.582;2023-11-19T06:14:17;58.72;;;11.57;;
83054;SDS011;72877;52.130;5.582;2023-11-19T06:16:42;51.05;;;9.15;;
83054;SDS011;72877;52.130;5.582;2023-11-19T06:19:07;44.53;;;10.45;;
83054;SDS011;72877;52.130;5.582;2023-11-19T06:21:33;48.22;;;10.60;;
83054;SDS011;72877;52.130;5.582;2023-11-19T06:23:58;49.75;;;10.50;;
83054;SDS011;72877;52.130;5.582;2023-11-19T06:26:24;64.75;;;10.25;;
83054;SDS011;72877;52.130;5.582;2023-11-19T06:28:49;71.40;;;11.38;;
83054;SDS011;72877;52.130;5.582;2023-11-19T06:31:14;68.77;;;10.60;;
83054;SDS011;72877;52.130;5.582;2023-11-19T06:33:41;51.25;;;12.05;;
83054;SDS011;72877;52.130;5.582;2023-11-19T06:36:06;57.58;;;10.57;;
83054;SDS011;72877;52.130;5.582;2023-11-19T06:38:32;54.20;;;10.15;;
83054;SDS011;72877;52.130;5.582;2023-11-19T06:40:58;60.42;;;9.35;;
83054;SDS011;72877;52.130;5.582;2023-11-19T06:43:24;58.25;;;11.75;;
83054;SDS011;72877;52.130;5.582;2023-11-19T06:45:50;53.35;;;12.40;;
83054;SDS011;72877;52.130;5.582;2023-11-19T06:48:16;50.70;;;10.60;;
83054;SDS011;72877;52.130;5.582;2023-11-19T06:50:41;46.92;;;10.50;;
83054;SDS011;72877;52.130;5.582;2023-11-19T06:53:06;58.50;;;10.15;;
83054;SDS011;72877;52.130;5.582;2023-11-19T06:55:35;54.40;;;10.27;;
83054;SDS011;72877;52.130;5.582;2023-11-19T06:58:00;40.47;;;8.73;;
83054;SDS011;72877;52.130;5.582;2023-11-19T07:00:27;63.78;;;12.20;;
83054;SDS011;72877;52.130;5.582;2023-11-19T07:02:52;62.72;;;11.45;;
83054;SDS011;72877;52.130;5.582;2023-11-19T07:05:17;51.23;;;10.20;;
83054;SDS011;72877;52.130;5.582;2023-11-19T07:07:43;57.25;;;8.85;;
83054;SDS011;72877;52.130;5.582;2023-11-19T07:10:08;62.17;;;11.50;;
83054;SDS011;72877;52.130;5.582;2023-11-19T07:12:34;51.58;;;9.60;;
83054;SDS011;72877;52.130;5.582;2023-11-19T07:15:00;59.85;;;10.65;;
83054;SDS011;72877;52.130;5.582;2023-11-19T07:17:27;61.53;;;9.77;;
83054;SDS011;72877;52.130;5.582;2023-11-19T07:19:52;57.25;;;10.25;;
83054;SDS011;72877;52.130;5.582;2023-11-19T07:22:17;56.30;;;11.15;;
83054;SDS011;72877;52.130;5.582;2023-11-19T07:24:42;49.73;;;9.37;;
83054;SDS011;72877;52.130;5.582;2023-11-19T07:27:08;45.00;;;9.68;;
83054;SDS011;72877;52.130;5.582;2023-11-19T07:29:36;57.28;;;10.38;;
83054;SDS011;72877;52.130;5.582;2023-11-19T07:32:01;55.03;;;12.15;;
83054;SDS011;72877;52.130;5.582;2023-11-19T07:34:30;48.33;;;10.25;;
83054;SDS011;72877;52.130;5.582;2023-11-19T07:36:55;47.00;;;10.23;;
83054;SDS011;72877;52.130;5.582;2023-11-19T07:39:24;46.95;;;9.93;;
83054;SDS011;72877;52.130;5.582;2023-11-19T07:41:49;43.15;;;9.45;;
83054;SDS011;72877;52.130;5.582;2023-11-19T07:44:14;47.03;;;10.43;;
83054;SDS011;72877;52.130;5.582;2023-11-19T07:46:40;52.55;;;10.27;;
83054;SDS011;72877;52.130;5.582;2023-11-19T07:49:07;51.70;;;10.30;;
83054;SDS011;72877;52.130;5.582;2023-11-19T07:51:32;71.07;;;11.23;;
83054;SDS011;72877;52.130;5.582;2023-11-19T07:53:58;61.33;;;10.93;;
83054;SDS011;72877;52.130;5.582;2023-11-19T07:56:23;47.53;;;9.05;;
83054;SDS011;72877;52.130;5.582;2023-11-19T07:58:48;60.97;;;10.45;;
83054;SDS011;72877;52.130;5.582;2023-11-19T08:01:15;56.53;;;11.23;;
83054;SDS011;72877;52.130;5.582;2023-11-19T08:03:40;56.45;;;10.32;;
83054;SDS011;72877;52.130;5.582;2023-11-19T08:06:05;57.50;;;10.53;;
83054;SDS011;72877;52.130;5.582;2023-11-19T08:08:31;58.78;;;12.15;;
83054;SDS011;72877;52.130;5.582;2023-11-19T08:10:58;48.55;;;11.30;;
83054;SDS011;72877;52.130;5.582;2023-11-19T08:13:24;43.25;;;10.52;;
83054;SDS011;72877;52.130;5.582;2023-11-19T08:15:50;49.95;;;10.60;;
83054;SDS011;72877;52.130;5.582;2023-11-19T08:18:15;65.88;;;11.85;;
83054;SDS011;72877;52.130;5.582;2023-11-19T08:20:40;57.35;;;9.35;;
83054;SDS011;72877;52.130;5.582;2023-11-19T08:23:06;51.15;;;9.15;;
83054;SDS011;72877;52.130;5.582;2023-11-19T08:25:31;58.47;;;9.60;;
83054;SDS011;72877;52.130;5.582;2023-11-19T08:27:58;63.17;;;10.52;;
83054;SDS011;72877;52.130;5.582;2023-11-19T08:30:23;70.80;;;10.77;;
83054;SDS011;72877;52.130;5.582;2023-11-19T08:32:49;63.28;;;10.68;;
83054;SDS011;72877;52.130;5.582;2023-11-19T08:35:14;60.47;;;11.73;;
83054;SDS011;72877;52.130;5.582;2023-11-19T08:37:41;48.55;;;10.82;;
83054;SDS011;72877;52.130;5.582;2023-11-19T08:40:07;53.33;;;10.48;;
83054;SDS011;72877;52.130;5.582;2023-11-19T08:42:32;53.22;;;9.23;;
83054;SDS011;72877;52.130;5.582;2023-11-19T08:44:57;55.47;;;11.30;;
83054;SDS011;72877;52.130;5.582;2023-11-19T08:47:23;36.93;;;9.37;;
83054;SDS011;72877;52.130;5.582;2023-11-19T08:49:50;55.65;;;9.52;;
83054;SDS011;72877;52.130;5.582;2023-11-19T08:52:16;56.65;;;10.75;;
83054;SDS011;72877;52.130;5.582;2023-11-19T08:54:43;45.40;;;9.13;;
83054;SDS011;72877;52.130;5.582;2023-11-19T08:57:08;64.10;;;10.38;;
83054;SDS011;72877;52.130;5.582;2023-11-19T08:59:34;41.72;;;9.90;;
83054;SDS011;72877;52.130;5.582;2023-11-19T09:01:59;40.42;;;8.45;;
83054;SDS011;72877;52.130;5.582;2023-11-19T09:04:25;53.72;;;10.27;;
83054;SDS011;72877;52.130;5.582;2023-11-19T09:06:50;56.00;;;10.88;;
83054;SDS011;72877;52.130;5.582;2023-11-19T09:09:15;53.80;;;9.30;;
83054;SDS011;72877;52.130;5.582;2023-11-19T09:11:40;41.92;;;8.05;;
83054;SDS011;72877;52.130;5.582;2023-11-19T09:14:06;54.38;;;10.80;;
83054;SDS011;72877;52.130;5.582;2023-11-19T09:16:31;56.55;;;9.88;;
83054;SDS011;72877;52.130;5.582;2023-11-19T09:18:57;54.28;;;9.40;;
83054;SDS011;72877;52.130;5.582;2023-11-19T09:21:23;54.92;;;10.77;;
83054;SDS011;72877;52.130;5.582;2023-11-19T09:23:48;47.40;;;9.93;;
83054;SDS011;72877;52.130;5.582;2023-11-19T09:26:14;45.20;;;9.35;;
83054;SDS011;72877;52.130;5.582;2023-11-19T09:28:39;52.35;;;9.57;;
83054;SDS011;72877;52.130;5.582;2023-11-19T09:31:17;41.03;;;9.40;;
83054;SDS011;72877;52.130;5.582;2023-11-19T09:33:42;57.00;;;8.07;;
83054;SDS011;72877;52.130;5.582;2023-11-19T09:36:07;47.42;;;10.13;;
83054;SDS011;72877;52.130;5.582;2023-11-19T09:38:33;48.40;;;8.60;;
83054;SDS011;72877;52.130;5.582;2023-11-19T09:40:58;49.33;;;9.90;;
83054;SDS011;72877;52.130;5.582;2023-11-19T09:43:24;49.03;;;9.25;;
83054;SDS011;72877;52.130;5.582;2023-11-19T09:45:50;39.95;;;8.80;;
83054;SDS011;72877;52.130;5.582;2023-11-19T09:48:18;46.38;;;8.77;;
83054;SDS011;72877;52.130;5.582;2023-11-19T09:50:47;54.15;;;9.73;;
83054;SDS011;72877;52.130;5.582;2023-11-19T09:53:12;51.83;;;10.50;;
83054;SDS011;72877;52.130;5.582;2023-11-19T09:55:38;44.03;;;9.20;;
83054;SDS011;72877;52.130;5.582;2023-11-19T09:58:03;54.67;;;9.70;;
83054;SDS011;72877;52.130;5.582;2023-11-19T10:00:29;53.70;;;9.60;;
83054;SDS011;72877;52.130;5.582;2023-11-19T10:02:55;39.95;;;9.18;;
83054;SDS011;72877;52.130;5.582;2023-11-19T10:05:22;44.28;;;9.23;;
83054;SDS011;72877;52.130;5.582;2023-11-19T10:07:48;53.53;;;9.13;;
83054;SDS011;72877;52.130;5.582;2023-11-19T10:10:14;43.97;;;8.77;;
83054;SDS011;72877;52.130;5.582;2023-11-19T10:12:43;59.42;;;9.95;;
83054;SDS011;72877;52.130;5.582;2023-11-19T10:15:08;47.45;;;8.20;;
83054;SDS011;72877;52.130;5.582;2023-11-19T10:17:42;44.53;;;9.02;;
83054;SDS011;72877;52.130;5.582;2023-11-19T10:20:07;48.13;;;9.18;;
83054;SDS011;72877;52.130;5.582;2023-11-19T10:22:36;41.10;;;9.70;;
83054;SDS011;72877;52.130;5.582;2023-11-19T10:25:01;68.25;;;10.10;;
83054;SDS011;72877;52.130;5.582;2023-11-19T10:27:27;47.97;;;9.90;;
83054;SDS011;72877;52.130;5.582;2023-11-19T10:29:52;48.45;;;8.70;;
83054;SDS011;72877;52.130;5.582;2023-11-19T10:32:18;44.17;;;10.57;;
83054;SDS011;72877;52.130;5.582;2023-11-19T10:34:43;50.63;;;10.17;;
83054;SDS011;72877;52.130;5.582;2023-11-19T10:37:08;50.00;;;9.48;;
83054;SDS011;72877;52.130;5.582;2023-11-19T10:39:52;44.08;;;9.00;;
83054;SDS011;72877;52.130;5.582;2023-11-19T10:42:19;44.65;;;9.52;;
83054;SDS011;72877;52.130;5.582;2023-11-19T10:44:44;45.28;;;8.38;;
83054;SDS011;72877;52.130;5.582;2023-11-19T10:47:10;40.42;;;9.95;;
83054;SDS011;72877;52.130;5.582;2023-11-19T10:49:35;52.25;;;9.15;;
83054;SDS011;72877;52.130;5.582;2023-11-19T10:52:00;46.75;;;8.25;;
83054;SDS011;72877;52.130;5.582;2023-11-19T10:54:26;41.35;;;8.40;;
83054;SDS011;72877;52.130;5.582;2023-11-19T10:56:56;49.85;;;9.80;;
83054;SDS011;72877;52.130;5.582;2023-11-19T10:59:23;40.05;;;8.65;;
83054;SDS011;72877;52.130;5.582;2023-11-19T11:01:50;46.15;;;9.20;;
83054;SDS011;72877;52.130;5.582;2023-11-19T11:04:19;49.33;;;9.43;;
83054;SDS011;72877;52.130;5.582;2023-11-19T11:06:47;37.40;;;8.73;;
83054;SDS011;72877;52.130;5.582;2023-11-19T11:09:13;40.17;;;8.07;;
83054;SDS011;72877;52.130;5.582;2023-11-19T11:11:41;40.42;;;9.15;;
83054;SDS011;72877;52.130;5.582;2023-11-19T11:14:12;42.20;;;8.10;;
83054;SDS011;72877;52.130;5.582;2023-11-19T11:16:37;50.90;;;8.60;;
83054;SDS011;72877;52.130;5.582;2023-11-19T11:19:02;31.00;;;7.60;;
83054;SDS011;72877;52.130;5.582;2023-11-19T11:21:28;41.58;;;8.27;;
83054;SDS011;72877;52.130;5.582;2023-11-19T11:24:04;44.20;;;8.05;;
83054;SDS011;72877;52.130;5.582;2023-11-19T11:26:53;41.78;;;8.15;;
83054;SDS011;72877;52.130;5.582;2023-11-19T11:29:35;35.75;;;8.05;;
83054;SDS011;72877;52.130;5.582;2023-11-19T11:32:13;41.35;;;8.80;;
83054;SDS011;72877;52.130;5.582;2023-11-19T11:37:26;46.20;;;8.77;;
83054;SDS011;72877;52.130;5.582;2023-11-19T11:39:56;39.42;;;8.38;;
83054;SDS011;72877;52.130;5.582;2023-11-19T11:47:25;47.42;;;9.95;;
83054;SDS011;72877;52.130;5.582;2023-11-19T11:49:50;45.45;;;9.40;;
83054;SDS011;72877;52.130;5.582;2023-11-19T11:52:16;45.58;;;9.05;;
83054;SDS011;72877;52.130;5.582;2023-11-19T11:54:42;32.22;;;8.75;;
83054;SDS011;72877;52.130;5.582;2023-11-19T11:59:37;32.63;;;8.02;;
83054;SDS011;72877;52.130;5.582;2023-11-19T12:02:03;47.15;;;8.40;;
83054;SDS011;72877;52.130;5.582;2023-11-19T12:04:29;43.60;;;9.38;;
83054;SDS011;72877;52.130;5.582;2023-11-19T12:09:28;37.50;;;7.45;;
83054;SDS011;72877;52.130;5.582;2023-11-19T12:12:07;42.17;;;9.68;;
83054;SDS011;72877;52.130;5.582;2023-11-19T12:19:59;33.03;;;7.50;;
83054;SDS011;72877;52.130;5.582;2023-11-19T12:22:24;40.33;;;7.40;;
83054;SDS011;72877;52.130;5.582;2023-11-19T12:24:50;34.25;;;6.90;;
83054;SDS011;72877;52.130;5.582;2023-11-19T12:27:16;48.13;;;7.20;;
83054;SDS011;72877;52.130;5.582;2023-11-19T12:29:42;33.05;;;7.65;;
83054;SDS011;72877;52.130;5.582;2023-11-19T12:32:09;36.25;;;7.10;;
83054;SDS011;72877;52.130;5.582;2023-11-19T12:34:34;35.78;;;6.78;;
83054;SDS011;72877;52.130;5.582;2023-11-19T12:37:03;23.58;;;5.53;;
83054;SDS011;72877;52.130;5.582;2023-11-19T12:39:31;32.85;;;6.57;;
83054;SDS011;72877;52.130;5.582;2023-11-19T12:41:56;26.83;;;6.88;;
83054;SDS011;72877;52.130;5.582;2023-11-19T12:44:24;26.40;;;5.65;;
83054;SDS011;72877;52.130;5.582;2023-11-19T12:46:59;36.75;;;7.68;;
83054;SDS011;72877;52.130;5.582;2023-11-19T12:49:25;34.55;;;7.00;;
83054;SDS011;72877;52.130;5.582;2023-11-19T12:51:50;39.92;;;7.75;;
83054;SDS011;72877;52.130;5.582;2023-11-19T12:54:15;33.47;;;7.00;;
83054;SDS011;72877;52.130;5.582;2023-11-19T12:56:51;34.83;;;8.23;;
83054;SDS011;72877;52.130;5.582;2023-11-19T12:59:16;43.08;;;7.47;;
83054;SDS011;72877;52.130;5.582;2023-11-19T13:01:42;30.17;;;7.88;;
83054;SDS011;72877;52.130;5.582;2023-11-19T13:04:18;27.42;;;6.32;;
83054;SDS011;72877;52.130;5.582;2023-11-19T13:06:44;35.25;;;7.88;;
83054;SDS011;72877;52.130;5.582;2023-11-19T13:09:12;28.13;;;6.50;;
83054;SDS011;72877;52.130;5.582;2023-11-19T13:11:46;28.38;;;6.50;;
83054;SDS011;72877;52.130;5.582;2023-11-19T13:14:11;32.08;;;7.80;;
83054;SDS011;72877;52.130;5.582;2023-11-19T13:16:37;35.05;;;7.25;;
83054;SDS011;72877;52.130;5.582;2023-11-19T13:19:03;33.05;;;7.05;;
83054;SDS011;72877;52.130;5.582;2023-11-19T13:21:29;47.03;;;8.52;;
83054;SDS011;72877;52.130;5.582;2023-11-19T13:23:57;49.08;;;8.63;;
83054;SDS011;72877;52.130;5.582;2023-11-19T13:26:22;44.83;;;8.57;;
83054;SDS011;72877;52.130;5.582;2023-11-19T13:28:48;37.80;;;9.23;;
83054;SDS011;72877;52.130;5.582;2023-11-19T13:31:13;35.30;;;6.60;;
83054;SDS011;72877;52.130;5.582;2023-11-19T13:33:39;41.67;;;7.70;;
83054;SDS011;72877;52.130;5.582;2023-11-19T13:36:04;38.25;;;6.97;;
83054;SDS011;72877;52.130;5.582;2023-11-19T13:38:35;37.38;;;7.93;;
83054;SDS011;72877;52.130;5.582;2023-11-19T13:41:04;39.22;;;8.55;;
83054;SDS011;72877;52.130;5.582;2023-11-19T13:43:29;46.83;;;9.98;;
83054;SDS011;72877;52.130;5.582;2023-11-19T13:45:55;43.90;;;8.05;;
83054;SDS011;72877;52.130;5.582;2023-11-19T13:48:20;46.42;;;9.50;;
83054;SDS011;72877;52.130;5.582;2023-11-19T13:50:45;43.87;;;11.50;;
83054;SDS011;72877;52.130;5.582;2023-11-19T13:53:10;37.17;;;10.18;;
83054;SDS011;72877;52.130;5.582;2023-11-19T13:55:36;38.75;;;9.55;;
83054;SDS011;72877;52.130;5.582;2023-11-19T13:58:01;38.30;;;11.73;;
83054;SDS011;72877;52.130;5.582;2023-11-19T14:00:26;42.87;;;9.60;;
83054;SDS011;72877;52.130;5.582;2023-11-19T14:02:51;42.77;;;8.60;;
83054;SDS011;72877;52.130;5.582;2023-11-19T14:05:17;30.35;;;7.15;;
83054;SDS011;72877;52.130;5.582;2023-11-19T14:07:43;32.95;;;8.15;;
83054;SDS011;72877;52.130;5.582;2023-11-19T14:10:08;29.30;;;7.60;;
83054;SDS011;72877;52.130;5.582;2023-11-19T14:12:36;38.70;;;8.85;;
83054;SDS011;72877;52.130;5.582;2023-11-19T14:15:02;39.90;;;6.47;;
83054;SDS011;72877;52.130;5.582;2023-11-19T14:17:27;27.45;;;5.97;;
83054;SDS011;72877;52.130;5.582;2023-11-19T14:19:54;27.70;;;7.07;;
83054;SDS011;72877;52.130;5.582;2023-11-19T14:22:19;41.30;;;8.48;;
83054;SDS011;72877;52.130;5.582;2023-11-19T14:24:44;25.60;;;6.95;;
83054;SDS011;72877;52.130;5.582;2023-11-19T14:27:10;27.13;;;6.70;;
83054;SDS011;72877;52.130;5.582;2023-11-19T14:29:35;38.58;;;6.85;;
83054;SDS011;72877;52.130;5.582;2023-11-19T14:32:01;37.08;;;7.43;;
83054;SDS011;72877;52.130;5.582;2023-11-19T14:34:27;28.40;;;7.00;;
83054;SDS011;72877;52.130;5.582;2023-11-19T14:36:52;35.92;;;7.13;;
83054;SDS011;72877;52.130;5.582;2023-11-19T14:39:18;41.13;;;7.78;;
83054;SDS011;72877;52.130;5.582;2023-11-19T14:41:44;32.90;;;7.07;;